Terminal Aerodrome Forecast
Issued by NWS

Home | Current Version | Previous Version | Text Only | Print | Product List | Glossary On
Versions: 1 2 3 4 5 6 7 8 9 10 11 12 13 14 15 16 17 18 19 20 21 22 23 24
000
FTUS46 KSEW 021510 AAA
TAFSEA
TAF AMD
KSEA 021510Z 0215/0318 21009KT P6SM SCT008 BKN090
     FM021700 18012KT P6SM -SHRA BKN015 OVC030
     FM022000 21014KT P6SM -SHRA SCT015 BKN035 BKN050
     FM031300 21010KT P6SM BKN025 OVC040=

USA.gov is the U.S. government's official web portal to all federal, state and local government web resources and services.